Hlavní strana
METAR-TAF:

METAR-TAF

Letiště :

Tetuán, Maroko

zeměpisná šířka: 35-35N, zeměpisná délka: 005-20W, výška: 10 m

Aktuální stav počasí

Zpráva byla vytvořena před 1 hodinou a 4 minutami, v 19:00 UTC
Východní vítr 14 kt
Teplota 16°C
Vlhkost vzduchu 82%
Tlak 1014 hPa
Viditelnost 10 km a více
Oblačno až skoro zataženo ve výšce 1600 ft, Vertikální cumulus.

METAR: GMTN 051900Z 09014KT 9999 BKN016TCU 16/13 Q1014 NOSIG

Čas: 21:04 (20:04 UTC)


TAF: chybějící

Stav a předpovědi počasí z více než 4 000 letišť (zprávy METAR a TAF).

Červené a žluté tečky na mapě představují dostupné meteorologické stanice.

Když kurzor umístíte na tečku, zobrazí se název stanice.

Pak kliknutím zobrazíte stav a předpověď počasí.

Chcete-li změnit mapu, kliknutím na zelené tlačítko se znaménkem +mapu přiblížíte, kliknutím na zelené tlačítko se znaménkem – mapu oddálíte a kliknutím na zelené šipky přejdete na sousední mapy.


METAR-TAF: